• Join FlightAware (Why Join?)
  • Login
  • US Flag 
07:16AM EDT


 

Airport Tracker/Info


-or-


 

Live Flight TrackerFlight Track Log ✈ ABX845 ✈ 01-Nov-2013 ✈ KGSO - TJSJ / SJU

Flight Track Log - Related Links

Times and Time Zones

All times are in EDT time to prevent confusion due to time zone crossing. See the ABX845 flight status page for this flight to view local times or setup timezone preferences in your user account.

Time Position Orientation Groundspeed Altitude Reporting Facility
EDT Latitude Longitude Course Direction KTS MPH feet Rate Location/Type
08:15AM 36.0650 -79.9392 185° South 142 163 2,700  Level Atlanta Center
08:16AM 36.0233 -79.9439 185° South 193 222 4,600 2,040 Climbing Atlanta Center
08:17AM 35.9681 -79.9722 203° Southwest 200 230 6,800 2,340 Climbing Atlanta Center
08:18AM 35.9128 -80.0083 208° Southwest 212 244 9,300 2,100 Climbing Atlanta Center
08:19AM 35.8453 -80.0475 205° Southwest 237 273 11,000 2,400 Climbing Atlanta Center
08:20AM 35.7497 -80.0572 185° South 280 322 14,200 2,460 Climbing Atlanta Center
08:22AM 35.5678 -79.8308 135° Southeast 382 440 19,400 2,160 Climbing Washington Center
08:23AM 35.4778 -79.7164 134° Southeast 428 493 21,500 2,340 Climbing Washington Center
08:24AM 35.3900 -79.5997 133° Southeast 457 526 24,100 2,400 Climbing Washington Center
08:25AM 35.3019 -79.4858 133° Southeast 462 532 26,300 1,380 Climbing Washington Center
08:26AM 35.2178 -79.3725 132° Southeast 462 532 27,000 840 Climbing Washington Center
08:27AM 35.1375 -79.2747 135° Southeast 456 525 28,000 540 Climbing Washington Center
08:28AM 35.0553 -79.1644 132° Southeast 456 525 28,100 660 Climbing Washington Center
08:29AM 34.9667 -79.0542 134° Southeast 456 525 29,400 900 Climbing Washington Center
08:30AM 34.8783 -78.9364 132° Southeast 456 525 30,000 600 Climbing Washington Center
08:31AM 34.7856 -78.8214 134° Southeast 461 531 30,700 1,140 Climbing Washington Center
08:32AM 34.6969 -78.7017 132° Southeast 467 537 32,300 1,680 Climbing Washington Center
08:33AM 34.5936 -78.5742 135° Southeast 480 552 34,100 1,740 Climbing Washington Center
08:34AM 34.5006 -78.4622 135° Southeast 480 552 35,800 1,500 Climbing Washington Center
08:35AM 34.4092 -78.3483 134° Southeast 473 544 37,200 1,020 Climbing Washington Center
08:36AM 34.3181 -78.2297 133° Southeast 473 544 37,900 780 Climbing Washington Center
08:37AM 34.2247 -78.1111 134° Southeast 479 551 38,800 660 Climbing Washington Center
08:39AM 34.0111 -77.9550 149° Southeast 485 558 40,000 360 Climbing Jacksonville Center
08:40AM 33.8856 -77.9469 177° South 448 516 40,000  Level Jacksonville Center
08:41AM 33.7600 -77.9367 176° South 448 516 40,000 -60 Level Jacksonville Center
08:42AM 33.6328 -77.9361 180° South 454 522 39,900 -60 Descending Jacksonville Center
08:43AM 33.5114 -77.9281 177° South 454 522 39,900  Level Jacksonville Center
08:44AM 33.3836 -77.9203 177° South 454 522 40,000  Climbing Jacksonville Center
08:45AM 33.2603 -77.9122 177° South 449 517 39,900 -60 Descending Jacksonville Center
08:46AM 33.1369 -77.9044 177° South 449 517 39,900  Level Jacksonville Center
08:47AM 33.0114 -77.8964 177° South 449 517 39,900  Level Jacksonville Center
08:48AM 32.8858 -77.8911 178° South 449 517 40,000  Climbing Jacksonville Center
08:49AM 32.7606 -77.8856 178° South 449 517 39,900 -60 Descending Jacksonville Center
08:50AM 32.6347 -77.8753 176° South 454 522 39,900  Level Jacksonville Center
08:51AM 32.5092 -77.8650 176° South 454 522 40,000  Climbing Jacksonville Center
08:52AM 32.3817 -77.8597 178° South 459 528 39,900 -60 Descending Jacksonville Center
08:53AM 32.2539 -77.8472 175° South 464 534 39,900  Level Jacksonville Center
08:54AM 32.1264 -77.8394 177° South 464 534 40,000  Climbing Jacksonville Center
08:55AM 31.9986 -77.8319 177° South 464 534 39,900 -60 Descending Jacksonville Center
08:56AM 31.8689 -77.8267 178° South 464 534 39,900  Level Jacksonville Center
08:57AM 31.7414 -77.8192 177° South 464 534 39,900  Level Jacksonville Center
08:58AM 31.6114 -77.8067 175° South 464 534 39,900  Level Jacksonville Center
08:59AM 31.4839 -77.8014 178° South 464 534 39,900  Level Jacksonville Center
09:00AM 31.3544 -77.7964 178° South 464 534 39,900  Level Jacksonville Center
09:01AM 31.2247 -77.7914 178° South 464 534 39,900  Level Jacksonville Center
09:02AM 31.0953 -77.7886 179° South 464 534 39,900  Level Jacksonville Center
09:03AM 30.9636 -77.7836 178° South 464 534 40,000  Climbing Jacksonville Center
09:04AM 30.8358 -77.7736 176° South 464 534 39,900 -60 Descending Jacksonville Center
09:06AM 30.5694 -77.7614 178° South 443 510 39,900  Level Miami Center
09:07AM 30.4422 -77.7531 177° South 466 536 40,000  Climbing Miami Center
09:08AM 30.3047 -77.7353 174° South 479 551 39,900  Descending Miami Center
09:09AM 30.1883 -77.6886 161° South 464 534 40,000  Climbing Miami Center
09:10AM 30.0656 -77.6372 160° South 469 540 40,000 -60 Level Miami Center
09:11AM 29.9303 -77.5764 159° South 490 564 39,900  Descending Miami Center
09:12AM 29.8075 -77.5278 161° South 490 564 40,000  Climbing Miami Center
09:13AM 29.6764 -77.4697 159° South 498 573 39,900  Descending Miami Center
09:14AM 29.5517 -77.4189 160° South 493 567 40,000  Climbing Miami Center
09:15AM 29.4183 -77.3611 159° South 491 565 39,900 -60 Descending Miami Center
09:16AM 29.2933 -77.3083 160° South 482 555 39,900  Level Miami Center
09:17AM 29.1642 -77.2553 160° South 488 562 39,900  Level Miami Center
09:18AM 29.0411 -77.2050 160° South 499 574 39,900  Level Miami Center
09:19AM 28.9244 -77.1572 160° South 504 580 40,000  Climbing Miami Center
09:20AM 28.7931 -77.1025 160° South 486 559 39,900 -60 Descending Miami Center
09:21AM 28.6700 -77.0503 160° South 481 554 39,900  Level Miami Center
09:22AM 28.5467 -76.9981 160° South 486 559 39,900  Level Miami Center
09:23AM 28.4153 -76.9436 160° South 486 559 39,900  Level Miami Center
09:24AM 28.2858 -76.8917 161° South 484 557 39,900  Level Miami Center
09:25AM 28.1564 -76.8444 162° South 489 563 40,000  Climbing Miami Center
09:26AM 28.0144 -76.7833 159° South 504 580 40,000  Level Miami Center
09:27AM 27.8994 -76.7339 159° South 495 570 40,000  Level Miami Center
09:28AM 27.7742 -76.6872 162° South 495 570 40,000  Level Miami Center
09:29AM 27.6447 -76.6381 161° South 489 563 40,000 120 Level Miami Center
09:30AM 27.5214 -76.5706 154° Southeast 483 556 40,300 420 Climbing Miami Center
09:31AM 27.4272 -76.4678 136° Southeast 468 539 40,900 300 Climbing Miami Center
09:32AM 27.3347 -76.3536 132° Southeast 475 547 41,000  Climbing Miami Center
09:33AM 27.2406 -76.2442 134° Southeast 475 547 41,000  Level Miami Center
09:34AM 27.1542 -76.1394 133° Southeast 475 547 41,000  Level Miami Center
09:35AM 27.0661 -76.0350 133° Southeast 466 536 41,000  Level Miami Center
09:36AM 26.9714 -75.9239 134° Southeast 482 555 41,000  Level Miami Center
09:37AM 26.8828 -75.8197 134° Southeast 474 545 41,000  Level Miami Center
09:38AM 26.7900 -75.7111 134° Southeast 479 551 41,000  Level Miami Center
09:39AM 26.7014 -75.6050 133° Southeast 472 543 41,000  Level Miami Center
09:40AM 26.6106 -75.4967 133° Southeast 472 543 41,000  Level Miami Center
09:41AM 26.5114 -75.3819 134° Southeast 476 548 41,000  Level Miami Center
09:42AM 26.4247 -75.2786 133° Southeast 470 541 41,000  Level Miami Center
09:43AM 26.3294 -75.1708 135° Southeast 476 548 41,000  Level Miami Center
09:44AM 26.2444 -75.0678 133° Southeast 468 539 41,000  Level Miami Center
09:45AM 26.1578 -74.9672 134° Southeast 465 535 41,000  Level Miami Center
09:46AM 26.0664 -74.8622 134° Southeast 468 539 41,000  Level Miami Center
09:47AM 25.9750 -74.7575 134° Southeast 463 533 41,000  Level Miami Center
09:48AM 25.8794 -74.6553 136° Southeast 472 543 41,000  Level Miami Center
09:49AM 25.7986 -74.5553 132° Southeast 464 534 41,000  Level Miami Center
09:50AM 25.7031 -74.4533 136° Southeast 459 528 41,000  Level Miami Center
09:51AM 25.6133 -74.3469 133° Southeast 459 528 41,000  Level Miami Center
09:52AM 25.5303 -74.2542 135° Southeast 452 520 41,000  Level Miami Center
09:53AM 25.4322 -74.1411 134° Southeast 461 531 41,000  Level Miami Center
09:54AM 25.3597 -74.0625 136° Southeast 466 536 41,000  Level Miami Center
09:55AM 25.2569 -73.9406 133° Southeast 474 545 41,000  Level Miami Center
09:56AM 25.1717 -73.8486 136° Southeast 468 539 41,000  Level Miami Center
09:57AM 25.0775 -73.7408 134° Southeast 468 539 41,000  Level Miami Center
09:58AM 24.9875 -73.6422 135° Southeast 468 539 41,000  Level Miami Center
09:59AM 24.8933 -73.5394 135° Southeast 475 547 41,000  Level Miami Center
10:00AM 24.8075 -73.4386 133° Southeast 469 540 41,000  Level Miami Center
10:01AM 24.7236 -73.3428 134° Southeast 459 528 41,000  Level Miami Center
10:02AM 24.6314 -73.2403 135° Southeast 459 528 41,000  Level Miami Center
10:03AM 24.5433 -73.1447 135° Southeast 449 517 41,000  Level Miami Center
10:04AM 24.4447 -73.0403 136° Southeast 457 526 41,000  Level Miami Center
10:05AM 24.3650 -72.9494 134° Southeast 448 516 41,000  Level Miami Center
10:06AM 24.2767 -72.8519 135° Southeast 448 516 41,000  Level Miami Center
10:07AM 24.1800 -72.7503 136° Southeast 453 521 41,000  Level Miami Center
10:08AM 24.1022 -72.6572 132° Southeast 446 513 41,000  Level Miami Center
10:09AM 24.0117 -72.5603 136° Southeast 457 526 41,000  Level Miami Center
10:10AM 23.9147 -72.4544 135° Southeast 448 516 41,000  Level Miami Center
10:11AM 23.8281 -72.3553 134° Southeast 448 516 41,000  Level Miami Center
10:12AM 23.7397 -72.2633 136° Southeast 448 516 41,000  Level Miami Center
10:13AM 23.6489 -72.1667 136° Southeast 448 516 41,000  Level Miami Center
10:14AM 23.5581 -72.0661 135° Southeast 453 521 41,000  Level Miami Center
10:15AM 23.4672 -71.9722 137° Southeast 453 521 41,000  Level Miami Center
10:16AM 23.3764 -71.8717 135° Southeast 453 521 41,000  Level Miami Center
10:17AM 23.2856 -71.7756 136° Southeast 453 521 41,000  Level Miami Center
10:18AM 23.1944 -71.6800 136° Southeast 453 521 41,000  Level Miami Center
10:19AM 23.1011 -71.5775 135° Southeast 458 527 41,000  Level Miami Center
10:20AM 23.0100 -71.4800 135° Southeast 458 527 41,000  Level Miami Center
10:21AM 22.9189 -71.3822 135° Southeast 458 527 41,000  Level Miami Center
10:22AM 22.8256 -71.2850 136° Southeast 458 527 41,000  Level Miami Center
10:23AM 22.7517 -71.2072 136° Southeast 463 533 41,000  Level Miami Center
10:24AM 22.6497 -71.1014 136° Southeast 458 527 41,000  Level Miami Center
10:25AM 22.5561 -71.0022 136° Southeast 458 527 41,000  Level Miami Center
10:26AM 22.4644 -70.9031 135° Southeast 458 527 41,000  Level Miami Center
10:27AM 22.3733 -70.8086 136° Southeast 465 535 41,000  Level Miami Center
10:28AM 22.2794 -70.7075 135° Southeast 460 529 41,000  Level Miami Center
10:29AM 22.1858 -70.6111 136° Southeast 460 529 41,000  Level Miami Center
10:30AM 22.0900 -70.5172 138° Southeast 465 535 41,000  Level Miami Center
10:31AM 21.9944 -70.4233 138° Southeast 465 535 41,000  Level Miami Center
10:32AM 21.8983 -70.3231 136° Southeast 465 535 41,000  Level Miami Center
10:33AM 21.8069 -70.2314 137° Southeast 459 528 41,000  Level Miami Center
10:34AM 21.7131 -70.1336 136° Southeast 459 528 41,000  Level Miami Center
10:35AM 21.6192 -70.0378 136° Southeast 459 528 41,000  Level Miami Center
10:36AM 21.5314 -69.9444 135° Southeast 454 522 41,000  Level Miami Center
10:37AM 21.4375 -69.8489 137° Southeast 454 522 41,000  Level Miami Center
10:38AM 21.3456 -69.7536 136° Southeast 454 522 41,000  Level Miami Center
10:39AM 21.2514 -69.6564 136° Southeast 454 522 41,000  Level Miami Center
10:40AM 21.1617 -69.5633 136° Southeast 454 522 41,000  Level Miami Center
10:41AM 21.0697 -69.4686 136° Southeast 454 522 41,000  Level Miami Center
10:42AM 20.9775 -69.3717 136° Southeast 454 522 41,000  Level Miami Center
10:43AM 20.8831 -69.2747 136° Southeast 459 528 41,000  Level Miami Center
10:44AM 20.7889 -69.1781 136° Southeast 464 534 41,000  Level Miami Center
10:45AM 20.6944 -69.0817 136° Southeast 464 534 41,000  Level Miami Center
10:46AM 20.6003 -68.9897 138° Southeast 464 534 41,000  Level Miami Center
10:47AM 20.4989 -68.8828 135° Southeast 464 534 41,000  Level Miami Center
10:48AM 20.4067 -68.7889 136° Southeast 464 534 41,000  Level Miami Center
10:49AM 20.3142 -68.6906 135° Southeast 464 534 41,000  Level Miami Center
10:50AM 20.2217 -68.5944 136° Southeast 464 534 41,000  Level Miami Center
10:51AM 20.1272 -68.5011 137° Southeast 464 534 41,000  Level Miami Center
10:52AM 20.0464 -68.3914 128° Southeast 470 541 41,000  Level Miami Center
10:53AM 19.9675 -68.2775 126° Southeast 476 548 41,000  Level Miami Center
10:54AM 19.8864 -68.1658 128° Southeast 476 548 41,000  Level Miami Center
10:55AM 19.8167 -68.0667 127° Southeast 470 541 41,000  Level San Juan Center
10:56AM 19.7333 -67.9667 132° Southeast 480 552 41,000  Level San Juan Center
10:57AM 19.6500 -67.8500 127° Southeast 480 552 41,000  Level San Juan Center
10:58AM 19.5667 -67.7333 127° Southeast 470 541 41,000  Level San Juan Center
10:59AM 19.5000 -67.6333 125° Southeast 470 541 41,000 -840 Level San Juan Center
11:00AM 19.4167 -67.5167 127° Southeast 470 541 39,400 -2,400 Descending San Juan Center
11:01AM 19.3333 -67.4000 127° Southeast 470 541 36,300 -3,600 Descending San Juan Center
11:02AM 19.2333 -67.2667 128° Southeast 480 552 32,300 -4,440 Descending San Juan Center
11:03AM 19.1500 -67.1500 127° Southeast 500 575 27,500 -4,800 Descending San Juan Center
11:04AM 19.0667 -67.0333 127° Southeast 500 575 22,800 -3,540 Descending San Juan Center
11:05AM 18.9833 -66.9333 131° Southeast 460 529 20,500 -3,120 Descending San Juan Center
11:06AM 18.9167 -66.8333 125° Southeast 390 449 16,600 -3,720 Descending San Juan Center
11:07AM 18.8667 -66.7500 122° Southeast 360 414 13,000 -2,760 Descending San Juan Center
11:08AM 18.8000 -66.6667 130° Southeast 340 391 11,100 -1,260 Descending San Juan Center
11:09AM 18.7500 -66.6000 128° Southeast 280 322 10,500 -900 Descending San Juan Center
11:10AM 18.7167 -66.5500 125° Southeast 260 299 9,400 -900 Descending San Juan Center
11:11AM 18.6667 -66.4833 128° Southeast 260 299 8,800 -720 Descending San Juan Center
11:12AM 18.6167 -66.4333 137° Southeast 250 288 8,000 -1,200 Descending San Juan Center
11:13AM 18.5833 -66.3833 125° Southeast 230 265 6,500 -1,260 Descending San Juan Center
11:14AM 18.5167 -66.3500 155° Southeast 210 242 5,500 -1,080 Descending San Juan Center
11:15AM 18.4667 -66.3333 162° South 200 230 4,400 -1,200 Descending San Juan Center
11:16AM 18.4333 -66.3000 137° Southeast 190 219 3,100 -720 Descending San Juan Center
11:17AM 18.4000 -66.2667 137° Southeast 200 230 3,000 -180 Descending San Juan Center
11:18AM 18.4333 -66.2167 55° Northeast 190 219 2,800 -540 Descending San Juan Center
11:19AM 18.4333 -66.1667 90° East 160 184 2,000 -420 Descending San Juan Center
11:20AM 18.4333 -66.1333 90° East 140 161 2,000 -300 Level San Juan Center
11:21AM 18.4333 -66.0833 90° East 120 138 1,500 -600 Descending San Juan Center
11:22AM 18.4333 -66.0500 90° East 120 138 800 -660 Descending San Juan Center
11:23AM 18.4167 -66.0167 118° Southeast 110 127 200 -600 Descending San Juan Center